Time;durP1;ratioP1;P1;durP2;ratioP2;P2;SDS_P1;SDS_P2;PMS_P1;PMS_P2;Temp;Humidity;BMP_temperature;BMP_pressure;BME280_temperature;BME280_humidity;BME280_pressure;Samples;Min_cycle;Max_cycle;Signal;HPM_P1;HPM_P2
2021/07/14 00:00:32;;;;;;;1.97;1.77;;;11.70;99.90;;;;;;5043075;28;20686;-55
2021/07/14 00:02:57;;;;;;;5.63;1.80;;;11.60;99.90;;;;;;5043323;28;20454;-56
2021/07/14 00:05:24;;;;;;;1.50;1.40;;;11.60;99.90;;;;;;5046967;28;20218;-56
2021/07/14 00:07:51;;;;;;;1.40;1.30;;;11.60;99.90;;;;;;5046110;28;20667;-59
2021/07/14 00:10:24;;;;;;;8.13;1.80;;;11.60;99.90;;;;;;5041527;28;20537;-56
2021/07/14 00:23:18;;;;;;;1.70;1.60;;;11.50;99.90;;;;;;5038986;28;21012;-56
2021/07/14 00:25:44;;;;;;;1.60;1.50;;;11.50;99.90;;;;;;5041669;28;20464;-56
2021/07/14 00:28:10;;;;;;;1.60;1.50;;;11.50;99.90;;;;;;5041440;28;20426;-56
2021/07/14 00:30:37;;;;;;;1.70;1.60;;;11.50;99.90;;;;;;5044177;28;20832;-56
2021/07/14 00:33:03;;;;;;;8.47;1.70;;;11.50;99.90;;;;;;5045637;28;20210;-56
2021/07/14 00:35:29;;;;;;;2.20;1.80;;;11.50;99.90;;;;;;5044222;28;20460;-57
2021/07/14 00:37:55;;;;;;;2.60;1.50;;;11.50;99.90;;;;;;5045021;28;20463;-56
2021/07/14 00:40:20;;;;;;;1.40;1.30;;;11.50;99.90;;;;;;5046101;28;20190;-56
2021/07/14 00:42:46;;;;;;;6.83;1.70;;;11.50;99.90;;;;;;5043059;28;20657;-56
2021/07/14 00:45:13;;;;;;;2.60;1.53;;;11.50;99.90;;;;;;5042403;28;20812;-57
2021/07/14 00:47:49;;;;;;;3.43;2.10;;;11.40;99.90;;;;;;5045458;28;20542;-57
2021/07/14 00:50:15;;;;;;;3.00;2.13;;;11.40;99.90;;;;;;5046699;28;20474;-57
2021/07/14 00:52:42;;;;;;;3.23;2.47;;;11.40;99.90;;;;;;5047893;28;20525;-57
2021/07/14 00:55:08;;;;;;;5.47;2.40;;;11.40;99.90;;;;;;5043548;28;20457;-56
2021/07/14 00:57:34;;;;;;;2.23;2.10;;;11.40;99.90;;;;;;5045398;28;20525;-57
2021/07/14 01:00:00;;;;;;;3.30;2.50;;;11.40;99.90;;;;;;5046407;28;20521;-58
2021/07/14 01:02:26;;;;;;;3.97;2.20;;;11.30;99.90;;;;;;5044691;28;20233;-56
2021/07/14 01:05:10;;;;;;;2.60;2.20;;;11.30;99.90;;;;;;5044828;28;20210;-56
2021/07/14 01:07:48;;;;;;;2.93;2.40;;;11.40;99.90;;;;;;5045299;28;20447;-57
2021/07/14 01:10:24;;;;;;;5.47;2.40;;;11.40;99.90;;;;;;5043586;28;20467;-57
2021/07/14 01:12:56;;;;;;;3.83;2.67;;;11.30;99.90;;;;;;5042953;28;20838;-56
2021/07/14 01:15:23;;;;;;;6.80;2.70;;;11.40;99.90;;;;;;5039016;28;20457;-57
2021/07/14 01:17:56;;;;;;;1.70;1.43;;;11.40;99.90;;;;;;5048043;28;21058;-57
2021/07/14 01:20:48;;;;;;;2.70;2.13;;;11.40;99.90;;;;;;5042308;28;20442;-57
2021/07/14 01:23:30;;;;;;;2.23;2.03;;;11.40;99.90;;;;;;5045442;28;20449;-56
2021/07/14 01:26:07;;;;;;;6.10;2.70;;;11.40;99.90;;;;;;5043600;28;20445;-56
2021/07/14 01:28:36;;;;;;;4.27;2.50;;;11.40;99.90;;;;;;5045675;28;20425;-57
2021/07/14 01:31:02;;;;;;;4.60;2.50;;;11.40;99.90;;;;;;5045925;28;20452;-56
2021/07/14 01:33:35;;;;;;;4.50;2.70;;;11.40;99.90;;;;;;5049321;28;20452;-56
2021/07/14 01:36:05;;;;;;;6.30;3.70;;;11.50;99.90;;;;;;5046008;28;20461;-57
2021/07/14 01:38:33;;;;;;;4.20;3.50;;;11.50;99.90;;;;;;5044420;28;20433;-57
2021/07/14 01:41:00;;;;;;;4.77;2.90;;;11.50;99.90;;;;;;5042454;28;20430;-58
2021/07/14 01:43:26;;;;;;;2.03;1.90;;;11.50;99.90;;;;;;5044741;28;20483;-56
2021/07/14 01:45:56;;;;;;;3.60;1.80;;;11.50;99.90;;;;;;5048215;28;20445;-57
2021/07/14 01:48:23;;;;;;;3.70;2.30;;;11.50;99.90;;;;;;5045074;28;20436;-57
2021/07/14 01:50:51;;;;;;;3.07;1.97;;;11.50;99.90;;;;;;5035667;28;20436;-56
2021/07/14 01:53:20;;;;;;;2.83;1.77;;;11.50;99.90;;;;;;5040941;28;20413;-56
2021/07/14 01:55:48;;;;;;;2.07;1.80;;;11.50;99.90;;;;;;5048717;28;20449;-57
2021/07/14 01:58:16;;;;;;;6.07;1.80;;;11.50;99.90;;;;;;5045854;28;20552;-57
2021/07/14 02:00:42;;;;;;;2.80;2.00;;;11.50;99.90;;;;;;5041109;28;20918;-57
2021/07/14 02:03:56;;;;;;;8.23;2.50;;;11.50;99.90;;;;;;5048613;28;20875;-57
2021/07/14 02:06:04;;;;;;;3.43;1.83;;;11.50;99.90;;;;;;5033166;28;20445;-56
2021/07/14 02:08:33;;;;;;;2.43;2.20;;;11.50;99.90;;;;;;5037272;28;20421;-57
2021/07/14 02:10:59;;;;;;;3.83;2.20;;;11.50;99.90;;;;;;5040254;28;20437;-57
2021/07/14 02:13:29;;;;;;;2.70;2.07;;;11.50;99.90;;;;;;5044666;28;20817;-57
2021/07/14 02:15:58;;;;;;;4.17;2.20;;;11.50;99.90;;;;;;5039522;28;21356;-56
2021/07/14 02:18:26;;;;;;;2.77;2.23;;;11.60;99.90;;;;;;5039031;28;20434;-56
2021/07/14 02:20:55;;;;;;;4.63;1.70;;;11.60;99.90;;;;;;5043754;28;20469;-57
2021/07/14 02:23:21;;;;;;;2.13;1.93;;;11.60;99.90;;;;;;5044215;28;20468;-60
2021/07/14 02:25:47;;;;;;;1.80;1.70;;;11.60;99.90;;;;;;5049967;28;20457;-57
2021/07/14 02:28:13;;;;;;;3.70;2.00;;;11.60;99.90;;;;;;5050334;28;20491;-56
2021/07/14 02:30:39;;;;;;;1.97;1.80;;;11.60;99.90;;;;;;5046353;28;20187;-57
2021/07/14 02:33:07;;;;;;;3.00;1.70;;;11.60;99.90;;;;;;5050973;28;20444;-56
2021/07/14 02:35:36;;;;;;;3.70;1.97;;;11.60;99.90;;;;;;5047762;28;20195;-57
2021/07/14 02:38:23;;;;;;;2.83;2.00;;;11.60;99.90;;;;;;5049322;28;20433;-57
2021/07/14 02:41:02;;;;;;;3.00;1.93;;;11.60;99.90;;;;;;5045430;28;20465;-57
2021/07/14 02:43:29;;;;;;;6.80;2.00;;;11.60;99.90;;;;;;5050188;28;20840;-57
2021/07/14 02:45:57;;;;;;;3.37;2.00;;;11.60;99.90;;;;;;5051293;28;20552;-56
2021/07/14 02:48:26;;;;;;;3.30;2.07;;;11.60;99.90;;;;;;5044478;28;20524;-56
2021/07/14 02:50:54;;;;;;;3.50;2.40;;;11.70;99.90;;;;;;5048893;28;20429;-57
2021/07/14 02:53:24;;;;;;;3.90;2.10;;;11.70;99.90;;;;;;5044364;28;21256;-57
2021/07/14 02:55:57;;;;;;;2.77;2.00;;;11.70;99.90;;;;;;5043729;28;20465;-57
2021/07/14 02:58:30;;;;;;;2.73;1.87;;;11.70;99.90;;;;;;5046143;28;20429;-57
2021/07/14 03:00:59;;;;;;;1.90;1.80;;;11.70;99.90;;;;;;5041128;28;20441;-56
2021/07/14 03:03:25;;;;;;;3.43;2.37;;;11.70;99.90;;;;;;5050590;28;20475;-57
2021/07/14 03:05:57;;;;;;;3.43;2.13;;;11.70;99.90;;;;;;5042891;28;20515;-57
2021/07/14 03:08:28;;;;;;;2.00;1.90;;;11.70;99.90;;;;;;5047045;28;20435;-56
2021/07/14 03:10:55;;;;;;;1.90;1.77;;;11.70;99.90;;;;;;5044342;28;21079;-57
2021/07/14 03:13:29;;;;;;;4.83;2.43;;;11.70;99.90;;;;;;5046479;28;20437;-57
2021/07/14 03:15:56;;;;;;;2.27;2.07;;;11.70;99.90;;;;;;5044373;28;20985;-57
2021/07/14 03:18:25;;;;;;;4.00;2.13;;;11.80;99.90;;;;;;5047094;28;20508;-57
2021/07/14 03:20:53;;;;;;;2.67;2.30;;;11.80;99.90;;;;;;5047492;28;20433;-58
2021/07/14 03:23:21;;;;;;;2.30;2.10;;;11.80;99.90;;;;;;5041025;28;20553;-59
2021/07/14 03:25:50;;;;;;;6.83;1.90;;;11.80;99.90;;;;;;5041498;28;20461;-57
2021/07/14 03:28:16;;;;;;;6.87;2.30;;;11.80;99.90;;;;;;5043872;28;20504;-57
2021/07/14 03:30:42;;;;;;;4.20;2.63;;;11.80;99.90;;;;;;5039592;28;20427;-58
2021/07/14 03:33:08;;;;;;;2.07;1.73;;;11.80;99.90;;;;;;5047363;28;20437;-57
2021/07/14 03:35:36;;;;;;;4.33;2.03;;;11.90;99.90;;;;;;5042990;28;21398;-57
2021/07/14 03:38:05;;;;;;;4.20;2.20;;;11.90;99.90;;;;;;5041027;28;20233;-58
2021/07/14 03:40:34;;;;;;;2.40;2.20;;;11.90;99.90;;;;;;5040394;28;20469;-57
2021/07/14 03:43:01;;;;;;;6.80;2.67;;;11.90;99.90;;;;;;5042775;28;20543;-57
2021/07/14 03:45:28;;;;;;;3.50;2.53;;;11.90;99.90;;;;;;5039344;28;20458;-57
2021/07/14 03:47:55;;;;;;;4.63;2.97;;;11.90;99.90;;;;;;5043051;28;20554;-57
2021/07/14 03:50:21;;;;;;;3.23;2.63;;;11.90;99.90;;;;;;5040812;28;20444;-57
2021/07/14 03:52:49;;;;;;;2.63;2.40;;;11.90;99.90;;;;;;5038286;28;20441;-56
2021/07/14 03:55:15;;;;;;;5.10;2.63;;;11.90;99.90;;;;;;5036331;28;20997;-57
2021/07/14 03:57:42;;;;;;;2.93;2.33;;;11.90;99.90;;;;;;5038842;28;20484;-56
2021/07/14 04:00:09;;;;;;;4.67;2.90;;;11.90;99.90;;;;;;5042384;28;20438;-58
2021/07/14 04:02:37;;;;;;;3.10;2.53;;;11.90;99.90;;;;;;5032947;28;20469;-52
2021/07/14 04:05:07;;;;;;;5.70;2.70;;;11.90;99.90;;;;;;5032483;28;20446;-57
2021/07/14 04:07:34;;;;;;;4.63;2.70;;;11.90;99.90;;;;;;5051320;28;20430;-59
2021/07/14 04:10:02;;;;;;;3.93;3.13;;;12.00;99.90;;;;;;5038487;28;20499;-57
2021/07/14 04:12:28;;;;;;;4.83;2.60;;;12.00;99.90;;;;;;5042506;28;20961;-55
2021/07/14 04:14:53;;;;;;;4.77;2.93;;;12.00;99.90;;;;;;5040387;28;20454;-58
2021/07/14 04:17:19;;;;;;;11.63;3.03;;;12.00;99.90;;;;;;5039395;28;20183;-60
2021/07/14 04:19:45;;;;;;;4.00;2.63;;;12.00;99.90;;;;;;5040727;28;20187;-59
2021/07/14 04:22:12;;;;;;;3.87;2.87;;;12.10;99.90;;;;;;5036941;28;20199;-59
2021/07/14 04:24:38;;;;;;;10.57;2.87;;;12.10;99.90;;;;;;5040023;28;20199;-58
2021/07/14 04:27:05;;;;;;;2.83;2.60;;;12.10;99.90;;;;;;5046049;28;20429;-57
2021/07/14 04:29:30;;;;;;;6.70;2.80;;;12.10;99.90;;;;;;5040407;28;20848;-56
2021/07/14 04:31:56;;;;;;;4.00;3.30;;;12.10;99.90;;;;;;5035342;28;20425;-56
2021/07/14 04:34:22;;;;;;;5.63;3.63;;;12.10;99.90;;;;;;5040156;28;20690;-56
2021/07/14 04:36:48;;;;;;;5.90;4.10;;;12.20;99.90;;;;;;5039645;28;20464;-60
2021/07/14 04:39:13;;;;;;;5.40;3.97;;;12.20;99.90;;;;;;5037876;28;20187;-57
2021/07/14 04:41:41;;;;;;;6.80;4.37;;;12.20;99.90;;;;;;5029432;28;20263;-57
2021/07/14 04:44:10;;;;;;;5.63;4.27;;;12.20;99.90;;;;;;5032549;28;20175;-57
2021/07/14 04:46:36;;;;;;;9.00;4.10;;;12.20;99.90;;;;;;5041134;28;20437;-60
2021/07/14 04:49:02;;;;;;;8.23;4.30;;;12.20;99.90;;;;;;5042255;28;20440;-55
2021/07/14 04:51:29;;;;;;;5.53;4.03;;;12.30;99.90;;;;;;5038733;28;20426;-55
2021/07/14 04:53:55;;;;;;;13.37;4.87;;;12.30;99.90;;;;;;5039162;28;20469;-60
2021/07/14 04:56:21;;;;;;;8.03;4.47;;;12.30;99.90;;;;;;5041274;28;20485;-59
2021/07/14 04:58:47;;;;;;;7.83;4.90;;;12.30;99.90;;;;;;5042559;28;20721;-59
2021/07/14 05:01:13;;;;;;;8.37;5.10;;;12.30;99.90;;;;;;5043096;28;20676;-58
2021/07/14 05:03:47;;;;;;;8.50;5.70;;;12.30;99.90;;;;;;5043442;28;20453;-58
2021/07/14 05:06:15;;;;;;;8.27;5.43;;;12.30;99.90;;;;;;5046934;28;20465;-58
2021/07/14 05:08:41;;;;;;;9.53;6.40;;;12.30;99.90;;;;;;5042345;28;20436;-59
2021/07/14 05:11:08;;;;;;;9.73;5.60;;;12.20;99.90;;;;;;5037405;28;21008;-58
2021/07/14 05:13:33;;;;;;;10.33;4.60;;;12.20;99.90;;;;;;5045019;28;20839;-59
2021/07/14 05:15:59;;;;;;;11.73;4.70;;;12.30;99.90;;;;;;5042773;28;20564;-56
2021/07/14 05:18:24;;;;;;;6.70;4.83;;;12.30;99.90;;;;;;5039382;28;20208;-58
2021/07/14 05:20:50;;;;;;;12.10;6.03;;;12.30;99.90;;;;;;5040218;28;20183;-57
2021/07/14 05:23:16;;;;;;;8.53;5.47;;;12.30;99.90;;;;;;5048885;28;20202;-58
2021/07/14 05:25:42;;;;;;;8.53;5.40;;;12.30;99.90;;;;;;5048066;28;20274;-57
2021/07/14 05:28:09;;;;;;;9.53;5.80;;;12.40;99.90;;;;;;5046506;28;20183;-59
2021/07/14 05:30:36;;;;;;;9.57;5.07;;;12.40;99.90;;;;;;5047767;28;20451;-57
2021/07/14 05:33:02;;;;;;;7.47;5.13;;;12.40;99.90;;;;;;5046003;28;21159;-57
2021/07/14 05:35:27;;;;;;;15.13;5.40;;;12.40;99.90;;;;;;5048459;28;20557;-56
2021/07/14 05:37:53;;;;;;;7.90;5.30;;;12.40;99.90;;;;;;5044098;28;20210;-57
2021/07/14 05:40:19;;;;;;;8.20;5.50;;;12.50;99.90;;;;;;5047758;28;20660;-57
2021/07/14 05:42:44;;;;;;;9.47;5.30;;;12.50;99.90;;;;;;5046089;28;20258;-58
2021/07/14 05:45:10;;;;;;;8.17;5.40;;;12.50;99.90;;;;;;5046690;28;20198;-57
2021/07/14 05:47:36;;;;;;;8.77;5.10;;;12.60;99.90;;;;;;5044359;28;20175;-56
2021/07/14 05:50:04;;;;;;;7.00;4.70;;;12.60;99.90;;;;;;5049486;28;20417;-57
2021/07/14 05:52:31;;;;;;;8.93;5.23;;;12.70;99.90;;;;;;5039986;28;20285;-57
2021/07/14 05:54:56;;;;;;;9.03;5.33;;;12.70;99.90;;;;;;5038603;28;20461;-57
2021/07/14 05:57:22;;;;;;;7.00;5.13;;;12.70;99.90;;;;;;5045815;28;20417;-57
2021/07/14 05:59:48;;;;;;;9.37;5.20;;;12.80;99.90;;;;;;5033024;28;20209;-57
2021/07/14 06:02:13;;;;;;;7.57;5.07;;;12.80;99.90;;;;;;5044434;28;20203;-57
2021/07/14 06:04:39;;;;;;;7.33;4.93;;;12.90;99.90;;;;;;5044298;28;20191;-59
2021/07/14 06:07:06;;;;;;;13.50;5.07;;;12.90;99.90;;;;;;5046898;28;20258;-58
2021/07/14 06:09:33;;;;;;;5.17;4.30;;;12.90;99.90;;;;;;5035814;28;20211;-58
2021/07/14 06:11:58;;;;;;;6.93;4.70;;;13.00;99.90;;;;;;5035792;28;20470;-56
2021/07/14 06:14:24;;;;;;;9.27;4.87;;;13.10;99.90;;;;;;5040961;28;20992;-58
2021/07/14 06:16:50;;;;;;;6.77;5.37;;;13.10;99.90;;;;;;5045341;28;20191;-58
2021/07/14 06:19:15;;;;;;;6.20;4.57;;;13.20;99.90;;;;;;5043261;28;20262;-57
2021/07/14 06:21:41;;;;;;;6.00;4.53;;;13.20;99.90;;;;;;5041079;28;20206;-57
2021/07/14 06:24:07;;;;;;;4.90;3.93;;;13.30;99.90;;;;;;5044776;28;20179;-57
2021/07/14 06:26:33;;;;;;;6.43;5.03;;;13.30;99.90;;;;;;5040664;28;20251;-58
2021/07/14 06:28:58;;;;;;;7.50;4.53;;;13.40;99.90;;;;;;5043845;28;20210;-58
2021/07/14 06:31:24;;;;;;;6.77;5.03;;;13.40;99.90;;;;;;5031081;28;20922;-59
2021/07/14 06:33:50;;;;;;;8.83;4.90;;;13.40;99.90;;;;;;5047032;28;20698;-56
2021/07/14 06:36:15;;;;;;;17.63;4.90;;;13.40;99.90;;;;;;5043324;28;20171;-58
2021/07/14 06:38:41;;;;;;;6.10;4.53;;;13.40;99.90;;;;;;5047190;28;20170;-58
2021/07/14 06:41:07;;;;;;;6.87;4.50;;;13.50;99.90;;;;;;5039041;28;20176;-58
2021/07/14 06:43:42;;;;;;;6.40;4.13;;;13.50;99.90;;;;;;5048190;28;20286;-57
2021/07/14 06:46:13;;;;;;;9.53;4.53;;;13.50;99.90;;;;;;5038719;28;21090;-56
2021/07/14 06:48:39;;;;;;;8.40;4.67;;;13.50;99.90;;;;;;5046654;28;20806;-57
2021/07/14 06:51:06;;;;;;;7.17;4.80;;;13.50;99.90;;;;;;5049276;28;20397;-58
2021/07/14 06:53:33;;;;;;;8.50;4.90;;;13.40;99.90;;;;;;5046278;28;20438;-58
2021/07/14 06:55:59;;;;;;;7.50;5.00;;;13.40;99.90;;;;;;5053514;23;20503;-55
2021/07/14 06:58:26;;;;;;;11.10;5.40;;;13.40;99.90;;;;;;5050291;28;20434;-56
2021/07/14 07:00:53;;;;;;;7.40;5.17;;;13.40;99.90;;;;;;5061783;28;20786;-55
2021/07/14 07:03:18;;;;;;;6.33;5.27;;;13.40;99.90;;;;;;5063166;28;20461;-60
2021/07/14 07:05:44;;;;;;;5.53;4.30;;;13.50;99.90;;;;;;5050489;28;20464;-54
2021/07/14 07:08:10;;;;;;;8.43;4.90;;;13.50;99.90;;;;;;5035754;28;20648;-56
2021/07/14 07:10:36;;;;;;;5.70;5.10;;;13.60;99.90;;;;;;5038008;28;20965;-54
2021/07/14 07:13:02;;;;;;;9.43;5.40;;;13.60;99.90;;;;;;5032805;28;20171;-54
2021/07/14 07:15:27;;;;;;;6.60;4.20;;;13.60;99.90;;;;;;5032968;28;20235;-53
2021/07/14 07:17:53;;;;;;;8.10;5.80;;;13.60;99.90;;;;;;5032692;28;20849;-55
2021/07/14 07:20:19;;;;;;;7.53;5.20;;;13.70;99.90;;;;;;5052512;28;20189;-55
2021/07/14 07:22:45;;;;;;;7.60;6.13;;;13.80;99.90;;;;;;5052382;28;20285;-54
2021/07/14 07:25:12;;;;;;;7.60;5.57;;;13.80;99.90;;;;;;5046911;28;20741;-53
2021/07/14 07:27:39;;;;;;;7.33;5.83;;;13.90;99.90;;;;;;5028379;28;21145;-55
2021/07/14 07:30:07;;;;;;;11.93;5.73;;;13.90;99.90;;;;;;5031023;28;20426;-55
2021/07/14 07:32:33;;;;;;;6.33;5.30;;;13.90;99.90;;;;;;5034359;28;20469;-55
2021/07/14 07:34:59;;;;;;;7.60;5.63;;;14.00;99.90;;;;;;5035592;28;20553;-54
2021/07/14 07:37:25;;;;;;;8.40;5.80;;;14.00;99.90;;;;;;5025804;28;21015;-57
2021/07/14 07:39:51;;;;;;;13.30;5.83;;;14.00;99.90;;;;;;5032738;28;20683;-54
2021/07/14 07:42:17;;;;;;;8.90;6.00;;;14.00;99.90;;;;;;5032342;28;20200;-55
2021/07/14 07:44:42;;;;;;;7.90;5.83;;;14.10;99.90;;;;;;5030205;28;20410;-54
2021/07/14 07:47:09;;;;;;;9.67;6.00;;;14.10;99.90;;;;;;5024004;28;20172;-54
2021/07/14 07:49:34;;;;;;;7.80;5.40;;;14.20;99.90;;;;;;5032679;28;20260;-55
2021/07/14 07:52:02;;;;;;;7.63;5.00;;;14.20;99.90;;;;;;5024555;28;20529;-55
2021/07/14 07:54:29;;;;;;;6.33;5.43;;;14.20;99.90;;;;;;5022048;28;20171;-55
2021/07/14 07:56:55;;;;;;;14.87;6.50;;;14.30;99.90;;;;;;5033124;28;20430;-53
2021/07/14 07:59:21;;;;;;;6.30;5.50;;;14.40;99.90;;;;;;5041945;28;20475;-55
2021/07/14 08:01:46;;;;;;;7.00;5.50;;;14.40;99.90;;;;;;5033714;28;20466;-54
2021/07/14 08:04:12;;;;;;;7.10;5.30;;;14.40;99.90;;;;;;5026334;28;20441;-56
2021/07/14 08:06:38;;;;;;;6.17;5.47;;;14.50;99.90;;;;;;5031566;28;20211;-53
2021/07/14 08:09:05;;;;;;;8.40;5.40;;;14.70;99.90;;;;;;5029383;28;20686;-54
2021/07/14 08:11:30;;;;;;;7.00;5.40;;;14.70;99.90;;;;;;5023227;28;20567;-55
2021/07/14 08:13:59;;;;;;;5.83;4.80;;;14.80;99.90;;;;;;5024025;28;20434;-57
2021/07/14 08:16:26;;;;;;;6.43;5.00;;;14.90;99.90;;;;;;5029175;28;20187;-55
2021/07/14 08:18:52;;;;;;;5.50;4.73;;;15.10;99.90;;;;;;5029822;28;21013;-54
2021/07/14 08:21:18;;;;;;;5.20;4.60;;;15.20;99.90;;;;;;5039646;28;21089;-55
2021/07/14 08:23:44;;;;;;;7.10;5.70;;;15.30;99.90;;;;;;5046819;28;20464;-52
2021/07/14 08:26:12;;;;;;;6.17;5.07;;;15.40;99.90;;;;;;5035712;28;20450;-53
2021/07/14 08:28:38;;;;;;;14.33;5.20;;;15.40;99.90;;;;;;5034866;28;20406;-53
2021/07/14 08:31:04;;;;;;;5.50;4.70;;;15.40;99.90;;;;;;5043113;28;20438;-52
2021/07/14 08:33:29;;;;;;;6.23;5.07;;;15.40;99.90;;;;;;5037379;28;20423;-53
2021/07/14 08:35:55;;;;;;;11.73;4.70;;;15.40;99.90;;;;;;5029036;28;20208;-54
2021/07/14 08:38:21;;;;;;;7.83;4.73;;;15.30;99.90;;;;;;5031390;28;20182;-53
2021/07/14 08:40:50;;;;;;;9.33;5.40;;;15.30;99.90;;;;;;5029917;28;20607;-53
2021/07/14 08:43:18;;;;;;;5.43;4.80;;;15.40;99.90;;;;;;5020968;28;20735;-55
2021/07/14 08:45:45;;;;;;;7.47;4.90;;;15.40;99.90;;;;;;5029243;28;20454;-54
2021/07/14 08:48:15;;;;;;;11.60;4.97;;;15.50;99.90;;;;;;5035731;28;20465;-53
2021/07/14 08:50:43;;;;;;;6.03;4.70;;;15.50;99.90;;;;;;5028981;28;20426;-53
2021/07/14 08:53:16;;;;;;;6.20;4.77;;;15.60;99.90;;;;;;5028675;28;20503;-54
2021/07/14 08:55:44;;;;;;;6.33;4.57;;;15.60;99.90;;;;;;5033759;28;20493;-54
2021/07/14 08:58:14;;;;;;;5.03;4.40;;;15.60;99.90;;;;;;5038975;28;20848;-52
2021/07/14 09:00:40;;;;;;;5.03;4.30;;;15.60;99.90;;;;;;5031539;28;20513;-54
2021/07/14 09:03:07;;;;;;;7.73;4.33;;;15.60;99.90;;;;;;5026958;28;20457;-54
2021/07/14 09:05:32;;;;;;;5.80;5.20;;;15.60;99.90;;;;;;5026411;28;20607;-52
2021/07/14 09:07:58;;;;;;;5.23;4.00;;;15.60;99.90;;;;;;5025218;28;20502;-53
2021/07/14 09:10:24;;;;;;;4.77;4.30;;;15.50;99.90;;;;;;5032389;28;20268;-53
2021/07/14 09:12:55;;;;;;;7.17;4.30;;;15.60;99.90;;;;;;5031002;28;20423;-53
2021/07/14 09:15:21;;;;;;;6.03;4.60;;;15.50;99.90;;;;;;5030826;28;20210;-52
2021/07/14 09:17:52;;;;;;;5.33;4.30;;;15.50;99.90;;;;;;5036874;28;20521;-54
2021/07/14 09:20:31;;;;;;;6.27;4.17;;;15.60;99.90;;;;;;5039841;28;20426;-53
2021/07/14 09:23:20;;;;;;;5.33;3.73;;;15.60;99.90;;;;;;5030845;28;20462;-54
2021/07/14 09:25:52;;;;;;;3.90;3.50;;;15.60;99.90;;;;;;5049643;28;20451;-55
2021/07/14 09:28:20;;;;;;;5.30;4.00;;;15.70;99.90;;;;;;5047725;28;20441;-55
2021/07/14 09:30:54;;;;;;;4.93;4.07;;;15.60;99.90;;;;;;5035453;28;20434;-54
2021/07/14 09:33:20;;;;;;;4.30;3.87;;;15.60;99.90;;;;;;5021464;28;20862;-56
2021/07/14 09:35:48;;;;;;;6.30;3.90;;;15.70;99.90;;;;;;5032640;28;20430;-56
2021/07/14 09:38:26;;;;;;;4.47;4.07;;;15.70;99.90;;;;;;5040324;28;20270;-57
2021/07/14 09:40:59;;;;;;;4.30;3.90;;;15.70;99.90;;;;;;5040590;28;20445;-56
2021/07/14 09:43:28;;;;;;;4.23;3.83;;;15.70;99.90;;;;;;5042186;28;20458;-61
2021/07/14 09:45:59;;;;;;;4.03;3.63;;;15.70;99.90;;;;;;5045217;28;20564;-57
2021/07/14 09:48:33;;;;;;;4.50;4.10;;;15.70;99.90;;;;;;5031870;28;20426;-53
2021/07/14 09:51:21;;;;;;;4.60;4.00;;;15.70;99.90;;;;;;5025955;28;20879;-53
2021/07/14 09:53:50;;;;;;;4.30;3.90;;;15.70;99.90;;;;;;5027691;28;21031;-53
2021/07/14 09:56:23;;;;;;;5.20;4.40;;;15.80;99.90;;;;;;5029280;28;20486;-54
2021/07/14 09:59:10;;;;;;;7.13;3.90;;;15.80;99.90;;;;;;5030593;28;20449;-55
2021/07/14 10:01:48;;;;;;;3.93;3.63;;;15.90;99.90;;;;;;5032040;28;20536;-54
2021/07/14 10:04:36;;;;;;;3.90;3.50;;;16.00;99.90;;;;;;5031798;28;20434;-53
2021/07/14 10:07:28;;;;;;;3.20;3.00;;;16.00;99.90;;;;;;5030856;28;20509;-54
2021/07/14 10:09:55;;;;;;;4.17;3.67;;;16.10;99.90;;;;;;5021998;28;20472;-56
2021/07/14 10:12:30;;;;;;;3.33;3.03;;;16.20;99.90;;;;;;5027702;28;20443;-54
2021/07/14 10:15:15;;;;;;;3.60;3.07;;;16.30;99.90;;;;;;5030451;28;20461;-54
2021/07/14 10:17:44;;;;;;;3.80;3.50;;;16.30;99.90;;;;;;5028015;28;20793;-55
2021/07/14 10:20:22;;;;;;;5.47;3.90;;;16.40;99.90;;;;;;5024249;28;20422;-56
2021/07/14 10:22:49;;;;;;;4.03;3.63;;;16.40;99.90;;;;;;5026639;28;20465;-55
2021/07/14 10:25:17;;;;;;;4.70;3.43;;;16.50;99.90;;;;;;5022841;28;20498;-56
2021/07/14 10:27:47;;;;;;;10.63;3.87;;;16.70;99.90;;;;;;5026501;28;20801;-56
2021/07/14 10:30:17;;;;;;;4.10;3.50;;;16.70;99.90;;;;;;5024089;28;20490;-54
2021/07/14 10:32:43;;;;;;;3.90;3.50;;;16.80;99.90;;;;;;5023613;28;20483;-57
2021/07/14 10:35:16;;;;;;;5.20;3.50;;;16.80;99.90;;;;;;5021343;28;20473;-56
2021/07/14 10:37:57;;;;;;;3.67;3.37;;;16.80;99.90;;;;;;5033319;28;20449;-62
2021/07/14 10:40:24;;;;;;;3.00;2.80;;;16.90;99.90;;;;;;5034170;28;20430;-54
2021/07/14 10:42:52;;;;;;;3.33;2.90;;;17.00;99.90;;;;;;5032684;28;20477;-52
2021/07/14 10:45:18;;;;;;;3.57;2.90;;;17.10;99.90;;;;;;5026401;28;20954;-53
2021/07/14 10:47:47;;;;;;;3.10;2.83;;;17.10;99.90;;;;;;5023859;28;20442;-56
2021/07/14 10:50:16;;;;;;;4.07;3.17;;;17.30;99.90;;;;;;5046548;28;20430;-56
2021/07/14 10:52:42;;;;;;;3.00;2.80;;;17.40;99.90;;;;;;5030692;28;20436;-54
2021/07/14 10:55:15;;;;;;;5.03;2.90;;;17.70;99.80;;;;;;5028927;28;20462;-56
2021/07/14 10:57:41;;;;;;;4.63;3.00;;;17.90;98.60;;;;;;5033503;28;20443;-56
2021/07/14 11:00:09;;;;;;;3.63;3.10;;;18.20;99.40;;;;;;5029164;28;20891;-56
2021/07/14 11:02:47;;;;;;;3.80;2.57;;;18.60;99.90;;;;;;5041170;28;20460;-57
2021/07/14 11:05:14;;;;;;;4.70;2.90;;;18.90;98.40;;;;;;5035235;28;20525;-55
2021/07/14 11:07:43;;;;;;;4.10;2.80;;;19.00;94.90;;;;;;5037184;28;20931;-55
2021/07/14 11:10:33;;;;;;;3.33;2.40;;;19.00;95.60;;;;;;5038560;28;20438;-55
2021/07/14 11:13:20;;;;;;;3.87;2.80;;;19.00;95.20;;;;;;5031874;28;20465;-55
2021/07/14 11:15:46;;;;;;;3.23;2.40;;;19.10;95.80;;;;;;5036332;28;20818;-54
2021/07/14 11:18:39;;;;;;;6.77;2.63;;;19.10;93.80;;;;;;5026989;28;20442;-58
2021/07/14 11:21:05;;;;;;;2.67;2.27;;;19.10;94.20;;;;;;5023057;28;20468;-54
2021/07/14 11:23:31;;;;;;;5.00;2.33;;;19.10;94.60;;;;;;5024631;28;20468;-56
2021/07/14 11:26:02;;;;;;;2.57;2.37;;;19.20;94.80;;;;;;5023791;28;20489;-55
2021/07/14 11:28:30;;;;;;;4.40;2.33;;;19.50;95.40;;;;;;5029436;28;20571;-56
2021/07/14 11:31:06;;;;;;;2.40;2.20;;;19.70;93.40;;;;;;5028619;28;20856;-55
2021/07/14 11:33:38;;;;;;;3.10;2.77;;;19.90;92.90;;;;;;5024798;28;20453;-53
2021/07/14 11:36:11;;;;;;;3.50;2.43;;;20.00;92.00;;;;;;5027253;28;21164;-55
2021/07/14 11:38:39;;;;;;;2.87;2.47;;;20.10;92.60;;;;;;5030834;28;20442;-55
2021/07/14 11:41:16;;;;;;;2.23;2.10;;;20.10;93.10;;;;;;5026858;28;20516;-56
2021/07/14 11:43:42;;;;;;;2.47;2.27;;;20.20;91.60;;;;;;5032346;28;20512;-55
2021/07/14 11:46:12;;;;;;;5.17;2.37;;;20.30;90.30;;;;;;5026751;28;20450;-55
2021/07/14 11:48:41;;;;;;;3.27;2.30;;;20.30;91.60;;;;;;5027654;28;20434;-56
2021/07/14 11:51:17;;;;;;;2.30;2.10;;;20.40;92.00;;;;;;5021221;28;20431;-55
2021/07/14 11:53:45;;;;;;;3.90;2.53;;;20.40;91.10;;;;;;5018027;28;20977;-55
2021/07/14 11:56:18;;;;;;;2.20;1.97;;;20.30;91.20;;;;;;5030923;28;20477;-57
2021/07/14 11:58:59;;;;;;;2.87;2.47;;;20.20;92.00;;;;;;5026773;28;20441;-54
2021/07/14 12:01:25;;;;;;;3.03;2.07;;;20.20;91.70;;;;;;5029127;28;20430;-55
2021/07/14 12:04:02;;;;;;;3.17;2.13;;;20.00;90.70;;;;;;5025868;28;20526;-55
2021/07/14 12:06:37;;;;;;;3.40;1.97;;;19.90;88.60;;;;;;5025331;28;20198;-55
2021/07/14 12:09:11;;;;;;;1.80;1.70;;;19.80;90.20;;;;;;5026275;28;20513;-56
2021/07/14 12:11:58;;;;;;;4.73;2.23;;;19.70;89.50;;;;;;5026652;28;20519;-55
2021/07/14 12:14:36;;;;;;;2.53;2.33;;;19.60;87.20;;;;;;5023312;28;20434;-56
2021/07/14 12:17:31;;;;;;;3.50;2.40;;;19.50;89.30;;;;;;5021975;28;20942;-57
2021/07/14 12:19:59;;;;;;;2.00;1.90;;;19.80;85.80;;;;;;5018359;28;20496;-57
2021/07/14 12:22:28;;;;;;;8.60;2.20;;;20.00;83.40;;;;;;5029205;28;20535;-55
2021/07/14 12:24:55;;;;;;;2.80;2.60;;;20.30;83.30;;;;;;5027874;28;20990;-58
2021/07/14 12:27:29;;;;;;;3.17;2.53;;;20.50;83.60;;;;;;5022074;28;20434;-57
2021/07/14 12:29:56;;;;;;;2.73;2.40;;;20.60;84.50;;;;;;5023446;28;20430;-56
2021/07/14 12:32:42;;;;;;;3.10;2.20;;;20.90;81.60;;;;;;5022716;28;20465;-55
2021/07/14 12:35:27;;;;;;;2.60;2.40;;;21.20;78.20;;;;;;5021192;28;20473;-55
2021/07/14 12:37:55;;;;;;;4.30;3.87;;;21.30;74.50;;;;;;5025840;28;20489;-57
2021/07/14 12:40:25;;;;;;;2.90;2.50;;;21.40;73.10;;;;;;5020641;28;22633;-56
2021/07/14 12:42:52;;;;;;;3.10;2.33;;;21.50;69.40;;;;;;5026302;28;20860;-56
2021/07/14 12:45:29;;;;;;;3.27;2.70;;;21.60;71.00;;;;;;5021203;28;20451;-56
2021/07/14 12:47:55;;;;;;;4.83;2.20;;;21.60;68.70;;;;;;5016850;28;20461;-56
2021/07/14 12:50:24;;;;;;;3.00;2.43;;;21.80;70.10;;;;;;5019959;28;20442;-59
2021/07/14 12:52:55;;;;;;;3.10;2.30;;;21.80;68.30;;;;;;5028371;28;20495;-57
2021/07/14 12:58:05;;;;;;;4.00;2.60;;;21.90;69.30;;;;;;5013951;28;20483;-57
2021/07/14 13:00:32;;;;;;;2.87;2.57;;;21.90;70.50;;;;;;5024341;28;21009;-56
2021/07/14 13:03:03;;;;;;;2.83;1.97;;;22.00;71.50;;;;;;4998553;28;20915;-57
2021/07/14 13:05:31;;;;;;;5.30;2.70;;;22.10;66.70;;;;;;5019666;28;20427;-58
2021/07/14 13:08:27;;;;;;;4.53;2.40;;;22.00;68.70;;;;;;5009678;28;20434;-58